Terminal Aerodrome Forecast
Issued by NWS Portland, OR

Home | Current Version | Previous Version | Text Only | Print | Product List | Glossary On
Versions: 1 2 3 4 5 6 7 8 9 10 11 12 13 14 15 16 17 18 19 20 21
000
FTUS46 KPQR 051130
TAFAST
TAF
KAST 051130Z 0512/0612 33008KT P6SM SCT022 OVC050
     FM051700 33009KT P6SM SCT025 BKN080
     FM052100 32013G21KT P6SM SCT030 BKN120
     FM060400 34011KT P6SM SCT030 BKN200
     FM060800 33005KT P6SM SCT250=

USA.gov is the U.S. government's official web portal to all federal, state and local government web resources and services.